NKS357 KFLL-KJAX
Flight info
| Callsign | NKS357 |
|---|---|
| Flight time | N/A |
| Altitude | 30000 |
| Route | FRSBE2 STYMY ORL HAINY QUBEN1 |
| Aircraft | A20N/M-SDE2E3FGHIRWXY/LB1 |
Departure
| Time | N/A |
|---|---|
| Airport | Fort Lauderdale Hollywood International Airport (KFLL) |
Arrival
| Time | 2026-05-04 00:46 |
|---|---|
| Airport | Jacksonville International Airport (KJAX) |
| Time | Latitude | Longitude | Altitude | Speed | Heading |
|---|---|---|---|---|---|
| 2026-05-04 00:22 | 30.41875 | -81.78922 | 5184 ft | 191 kts | 340° |
| 2026-05-04 00:22 | 30.43114 | -81.79391 | 4952 ft | 188 kts | 340° |
| 2026-05-04 00:22 | 30.44355 | -81.79861 | 4691 ft | 187 kts | 340° |
| 2026-05-04 00:23 | 30.45597 | -81.80329 | 4437 ft | 187 kts | 340° |
| 2026-05-04 00:23 | 30.46841 | -81.80797 | 4191 ft | 189 kts | 340° |
| 2026-05-04 00:23 | 30.48090 | -81.81267 | 3941 ft | 189 kts | 341° |
| 2026-05-04 00:23 | 30.49343 | -81.81737 | 3694 ft | 190 kts | 342° |
| 2026-05-04 00:24 | 30.50612 | -81.82213 | 3260 ft | 194 kts | 343° |
| 2026-05-04 00:24 | 30.51917 | -81.82701 | 2749 ft | 200 kts | 344° |
| 2026-05-04 00:24 | 30.53264 | -81.83203 | 2220 ft | 206 kts | 345° |
| 2026-05-04 00:24 | 30.54636 | -81.83714 | 1815 ft | 205 kts | 345° |
| 2026-05-04 00:25 | 30.55946 | -81.84204 | 1703 ft | 189 kts | 346° |
| 2026-05-04 00:25 | 30.57168 | -81.84329 | 1691 ft | 170 kts | 18° |
| 2026-05-04 00:25 | 30.58012 | -81.83546 | 1701 ft | 155 kts | 71° |
| 2026-05-04 00:25 | 30.57969 | -81.82357 | 1714 ft | 145 kts | 109° |
| 2026-05-04 00:26 | 30.57513 | -81.81393 | 1677 ft | 129 kts | 125° |
| 2026-05-04 00:26 | 30.56976 | -81.80623 | 1688 ft | 120 kts | 129° |
| 2026-05-04 00:26 | 30.56439 | -81.79894 | 1724 ft | 116 kts | 129° |
| 2026-05-04 00:26 | 30.55917 | -81.79184 | 1714 ft | 116 kts | 129° |
| 2026-05-04 00:27 | 30.55388 | -81.78463 | 1697 ft | 118 kts | 129° |
| 2026-05-04 00:27 | 30.54867 | -81.77753 | 1694 ft | 119 kts | 129° |
| 2026-05-04 00:27 | 30.54329 | -81.77024 | 1607 ft | 120 kts | 129° |
| 2026-05-04 00:27 | 30.53785 | -81.76289 | 1438 ft | 120 kts | 128° |
| 2026-05-04 00:28 | 30.53245 | -81.75557 | 1270 ft | 120 kts | 128° |
| 2026-05-04 00:28 | 30.52704 | -81.74822 | 1098 ft | 120 kts | 129° |
| 2026-05-04 00:28 | 30.52167 | -81.74095 | 942 ft | 120 kts | 128° |
| 2026-05-04 00:28 | 30.51956 | -81.73808 | 882 ft | 120 kts | 128° |
| 2026-05-04 00:29 | 30.51933 | -81.73776 | 876 ft | 120 kts | 128° |
| 2026-05-04 00:29 | 30.51392 | -81.73043 | 718 ft | 119 kts | 127° |
| 2026-05-04 00:29 | 30.50854 | -81.72312 | 569 ft | 121 kts | 127° |
| 2026-05-04 00:29 | 30.50302 | -81.71564 | 407 ft | 123 kts | 127° |
| 2026-05-04 00:30 | 30.49743 | -81.70822 | 281 ft | 121 kts | 127° |
| 2026-05-04 00:30 | 30.49206 | -81.70071 | 106 ft | 120 kts | 128° |
| 2026-05-04 00:30 | 30.48670 | -81.69347 | 71 ft | 116 kts | 127° |
| 2026-05-04 00:30 | 30.48055 | -81.68423 | 597 ft | 171 kts | 123° |
| 2026-05-04 00:31 | 30.47364 | -81.67164 | 1434 ft | 188 kts | 120° |
| 2026-05-04 00:31 | 30.46925 | -81.65888 | 3050 ft | 165 kts | 102° |
| 2026-05-04 00:31 | 30.46900 | -81.64509 | 4232 ft | 180 kts | 78° |
| 2026-05-04 00:31 | 30.47399 | -81.63256 | 4570 ft | 167 kts | 46° |
| 2026-05-04 00:32 | 30.48368 | -81.62530 | 4187 ft | 173 kts | 14° |
| 2026-05-04 00:32 | 30.49599 | -81.62547 | 3713 ft | 187 kts | 343° |
| 2026-05-04 00:32 | 30.50833 | -81.63190 | 3208 ft | 203 kts | 328° |
| 2026-05-04 00:32 | 30.51856 | -81.64410 | 2689 ft | 219 kts | 306° |
| 2026-05-04 00:33 | 30.52654 | -81.65939 | 2289 ft | 224 kts | 299° |
| 2026-05-04 00:33 | 30.54099 | -81.69224 | 1706 ft | 231 kts | 297° |
| 2026-05-04 00:33 | 30.54801 | -81.70905 | 1692 ft | 231 kts | 297° |
| 2026-05-04 00:34 | 30.55450 | -81.72593 | 1686 ft | 223 kts | 287° |
| 2026-05-04 00:34 | 30.55674 | -81.74303 | 1675 ft | 207 kts | 264° |
| 2026-05-04 00:34 | 30.55337 | -81.75844 | 1700 ft | 187 kts | 248° |
| 2026-05-04 00:34 | 30.54885 | -81.77181 | 1696 ft | 170 kts | 242° |
| 2026-05-04 00:35 | 30.54157 | -81.78086 | 1625 ft | 145 kts | 192° |
| 2026-05-04 00:35 | 30.53221 | -81.77995 | 1702 ft | 133 kts | 162° |
| 2026-05-04 00:35 | 30.52406 | -81.77605 | 1512 ft | 125 kts | 135° |
| 2026-05-04 00:35 | 30.51907 | -81.76848 | 1364 ft | 118 kts | 120° |
| 2026-05-04 00:36 | 30.51593 | -81.75968 | 1325 ft | 119 kts | 104° |
| 2026-05-04 00:36 | 30.51512 | -81.75024 | 1317 ft | 117 kts | 95° |
| 2026-05-04 00:36 | 30.51467 | -81.74071 | 1151 ft | 119 kts | 96° |
| 2026-05-04 00:36 | 30.51245 | -81.73153 | 829 ft | 120 kts | 112° |
| 2026-05-04 00:37 | 30.50834 | -81.72314 | 480 ft | 121 kts | 123° |
| 2026-05-04 00:37 | 30.50292 | -81.71561 | 334 ft | 125 kts | 126° |
| 2026-05-04 00:37 | 30.49733 | -81.70791 | 218 ft | 123 kts | 127° |
| 2026-05-04 00:37 | 30.49191 | -81.70057 | 92 ft | 119 kts | 128° |
| 2026-05-04 00:38 | 30.48682 | -81.69361 | 57 ft | 105 kts | 129° |
| 2026-05-04 00:38 | 30.48164 | -81.68673 | 431 ft | 139 kts | 130° |
| 2026-05-04 00:38 | 30.47408 | -81.67778 | 1319 ft | 161 kts | 139° |
| 2026-05-04 00:38 | 30.46430 | -81.67233 | 2176 ft | 160 kts | 165° |
| 2026-05-04 00:39 | 30.45306 | -81.67391 | 2631 ft | 171 kts | 204° |
| 2026-05-04 00:39 | 30.44549 | -81.68458 | 2630 ft | 179 kts | 250° |
| 2026-05-04 00:39 | 30.44197 | -81.69855 | 2193 ft | 182 kts | 242° |
| 2026-05-04 00:39 | 30.43556 | -81.71095 | 1916 ft | 181 kts | 246° |
| 2026-05-04 00:40 | 30.43225 | -81.72511 | 1891 ft | 184 kts | 259° |
| 2026-05-04 00:40 | 30.43109 | -81.73951 | 1894 ft | 184 kts | 267° |
| 2026-05-04 00:40 | 30.43099 | -81.75415 | 1827 ft | 175 kts | 270° |
| 2026-05-04 00:40 | 30.43135 | -81.76815 | 1803 ft | 174 kts | 271° |
| 2026-05-04 00:41 | 30.43196 | -81.78243 | 1877 ft | 180 kts | 272° |
| 2026-05-04 00:41 | 30.43275 | -81.79702 | 1894 ft | 182 kts | 275° |
| 2026-05-04 00:41 | 30.43407 | -81.81158 | 1891 ft | 182 kts | 269° |
| 2026-05-04 00:41 | 30.43549 | -81.82581 | 1860 ft | 171 kts | 300° |
| 2026-05-04 00:42 | 30.44385 | -81.83284 | 1825 ft | 137 kts | 1° |
| 2026-05-04 00:42 | 30.45164 | -81.82893 | 1894 ft | 122 kts | 49° |
| 2026-05-04 00:42 | 30.45751 | -81.82195 | 2071 ft | 121 kts | 54° |
| 2026-05-04 00:42 | 30.46116 | -81.81335 | 1980 ft | 119 kts | 73° |
| 2026-05-04 00:43 | 30.46367 | -81.80414 | 1913 ft | 121 kts | 74° |
| 2026-05-04 00:43 | 30.46660 | -81.79495 | 1897 ft | 122 kts | 71° |
| 2026-05-04 00:43 | 30.46983 | -81.78581 | 1740 ft | 123 kts | 69° |
| 2026-05-04 00:43 | 30.47302 | -81.77667 | 1486 ft | 121 kts | 71° |
| 2026-05-04 00:44 | 30.47577 | -81.76752 | 1275 ft | 119 kts | 75° |
| 2026-05-04 00:44 | 30.47842 | -81.75845 | 1085 ft | 120 kts | 73° |
| 2026-05-04 00:44 | 30.48126 | -81.74939 | 945 ft | 122 kts | 73° |
| 2026-05-04 00:44 | 30.48400 | -81.74030 | 779 ft | 117 kts | 73° |
| 2026-05-04 00:45 | 30.48669 | -81.73138 | 600 ft | 119 kts | 75° |
| 2026-05-04 00:45 | 30.48944 | -81.72227 | 447 ft | 121 kts | 72° |
| 2026-05-04 00:45 | 30.49219 | -81.71314 | 298 ft | 119 kts | 71° |
| 2026-05-04 00:45 | 30.49497 | -81.70411 | 141 ft | 119 kts | 72° |
| 2026-05-04 00:46 | 30.49771 | -81.69513 | 52 ft | 112 kts | 73° |
| 2026-05-04 00:46 | 30.50011 | -81.68729 | 42 ft | 97 kts | 73° |
| 2026-05-04 00:46 | 30.50160 | -81.68161 | 43 ft | 48 kts | 83° |
| 2026-05-04 00:46 | 30.50076 | -81.67995 | 42 ft | 12 kts | 153° |
| 2026-05-04 00:47 | 30.50032 | -81.67972 | 41 ft | 8 kts | 156° |
| 2026-05-04 00:47 | 30.49991 | -81.67958 | 40 ft | 2 kts | 164° |
| 2026-05-04 00:47 | 30.49895 | -81.67921 | 39 ft | 20 kts | 160° |
| 2026-05-04 00:47 | 30.49859 | -81.67928 | 39 ft | 7 kts | 229° |
| 2026-05-04 00:48 | 30.49860 | -81.68021 | 40 ft | 29 kts | 277° |
| 2026-05-04 00:48 | 30.49823 | -81.68203 | 36 ft | 0 kts | 250° |
| 2026-05-04 00:48 | 30.49823 | -81.68206 | 37 ft | 3 kts | 250° |
| 2026-05-04 00:49 | 30.49806 | -81.68258 | 39 ft | 18 kts | 251° |
| 2026-05-04 00:49 | 30.49833 | -81.68333 | 39 ft | 6 kts | 333° |
| 2026-05-04 00:49 | 30.49861 | -81.68359 | 39 ft | 7 kts | 296° |
| 2026-05-04 00:49 | 30.49817 | -81.68461 | 39 ft | 12 kts | 195° |
| 2026-05-04 00:50 | 30.49724 | -81.68481 | 39 ft | 15 kts | 189° |
| 2026-05-04 00:50 | 30.49613 | -81.68503 | 39 ft | 17 kts | 189° |
| 2026-05-04 00:50 | 30.49537 | -81.68551 | 41 ft | 10 kts | 229° |
| 2026-05-04 00:50 | 30.49490 | -81.68614 | 41 ft | 8 kts | 213° |
| 2026-05-04 00:51 | 30.49444 | -81.68617 | 41 ft | 7 kts | 165° |
| 2026-05-04 00:51 | 30.49398 | -81.68598 | 42 ft | 8 kts | 160° |
| 2026-05-04 00:51 | 30.49393 | -81.68596 | 40 ft | 0 kts | 160° |